sensor_id;sensor_type;location;lat;lon;timestamp;P1;durP1;ratioP1;P2;durP2;ratioP2
79122;SDS011;68526;44.600;26.032;2023-03-12T00:00:53;4.93;;;2.60;;
79122;SDS011;68526;44.600;26.032;2023-03-12T00:01:54;3.80;;;2.65;;
79122;SDS011;68526;44.600;26.032;2023-03-12T00:02:55;3.30;;;2.75;;
79122;SDS011;68526;44.600;26.032;2023-03-12T00:03:56;3.83;;;2.80;;
79122;SDS011;68526;44.600;26.032;2023-03-12T00:04:59;3.33;;;2.33;;
79122;SDS011;68526;44.600;26.032;2023-03-12T00:06:01;3.80;;;2.53;;
79122;SDS011;68526;44.600;26.032;2023-03-12T00:07:04;4.70;;;2.95;;
79122;SDS011;68526;44.600;26.032;2023-03-12T00:08:06;4.15;;;2.67;;
79122;SDS011;68526;44.600;26.032;2023-03-12T00:09:10;4.78;;;2.40;;
79122;SDS011;68526;44.600;26.032;2023-03-12T00:10:11;8.63;;;2.55;;
79122;SDS011;68526;44.600;26.032;2023-03-12T00:11:14;5.00;;;2.45;;
79122;SDS011;68526;44.600;26.032;2023-03-12T00:12:16;3.42;;;2.95;;
79122;SDS011;68526;44.600;26.032;2023-03-12T00:13:18;4.22;;;3.47;;
79122;SDS011;68526;44.600;26.032;2023-03-12T00:14:19;5.15;;;2.47;;
79122;SDS011;68526;44.600;26.032;2023-03-12T00:15:22;4.15;;;2.60;;
79122;SDS011;68526;44.600;26.032;2023-03-12T00:16:23;4.05;;;2.30;;
79122;SDS011;68526;44.600;26.032;2023-03-12T00:17:25;5.82;;;2.50;;
79122;SDS011;68526;44.600;26.032;2023-03-12T00:18:28;3.90;;;2.35;;
79122;SDS011;68526;44.600;26.032;2023-03-12T00:19:30;4.97;;;2.65;;
79122;SDS011;68526;44.600;26.032;2023-03-12T00:20:30;3.88;;;2.63;;
79122;SDS011;68526;44.600;26.032;2023-03-12T00:21:33;6.28;;;2.42;;
79122;SDS011;68526;44.600;26.032;2023-03-12T00:22:33;4.82;;;2.40;;
79122;SDS011;68526;44.600;26.032;2023-03-12T00:23:35;3.03;;;2.28;;
79122;SDS011;68526;44.600;26.032;2023-03-12T00:24:38;6.20;;;2.63;;
79122;SDS011;68526;44.600;26.032;2023-03-12T00:25:40;3.40;;;2.50;;
79122;SDS011;68526;44.600;26.032;2023-03-12T00:26:40;3.80;;;2.53;;
79122;SDS011;68526;44.600;26.032;2023-03-12T00:27:42;5.97;;;2.55;;
79122;SDS011;68526;44.600;26.032;2023-03-12T00:28:43;3.50;;;2.45;;
79122;SDS011;68526;44.600;26.032;2023-03-12T00:29:45;3.17;;;2.50;;
79122;SDS011;68526;44.600;26.032;2023-03-12T00:30:46;3.17;;;2.10;;
79122;SDS011;68526;44.600;26.032;2023-03-12T00:31:48;6.20;;;2.60;;
79122;SDS011;68526;44.600;26.032;2023-03-12T00:32:50;3.33;;;2.60;;
79122;SDS011;68526;44.600;26.032;2023-03-12T00:33:52;5.88;;;2.60;;
79122;SDS011;68526;44.600;26.032;2023-03-12T00:34:54;6.95;;;2.40;;
79122;SDS011;68526;44.600;26.032;2023-03-12T00:35:58;3.20;;;2.25;;
79122;SDS011;68526;44.600;26.032;2023-03-12T00:37:01;3.75;;;2.33;;
79122;SDS011;68526;44.600;26.032;2023-03-12T00:38:01;3.17;;;2.35;;
79122;SDS011;68526;44.600;26.032;2023-03-12T00:39:03;4.43;;;2.33;;
79122;SDS011;68526;44.600;26.032;2023-03-12T00:40:06;3.45;;;2.03;;
79122;SDS011;68526;44.600;26.032;2023-03-12T00:41:10;5.53;;;2.30;;
79122;SDS011;68526;44.600;26.032;2023-03-12T00:42:11;3.45;;;2.35;;
79122;SDS011;68526;44.600;26.032;2023-03-12T00:43:13;4.70;;;2.55;;
79122;SDS011;68526;44.600;26.032;2023-03-12T00:44:14;2.88;;;2.10;;
79122;SDS011;68526;44.600;26.032;2023-03-12T00:45:16;5.03;;;2.35;;
79122;SDS011;68526;44.600;26.032;2023-03-12T00:46:17;2.60;;;2.00;;
79122;SDS011;68526;44.600;26.032;2023-03-12T00:47:19;4.18;;;2.40;;
79122;SDS011;68526;44.600;26.032;2023-03-12T00:48:20;5.00;;;2.63;;
79122;SDS011;68526;44.600;26.032;2023-03-12T00:49:22;4.68;;;2.50;;
79122;SDS011;68526;44.600;26.032;2023-03-12T00:50:23;3.38;;;2.35;;
79122;SDS011;68526;44.600;26.032;2023-03-12T00:51:24;2.55;;;1.98;;
79122;SDS011;68526;44.600;26.032;2023-03-12T00:52:25;3.83;;;2.63;;
79122;SDS011;68526;44.600;26.032;2023-03-12T00:53:27;5.38;;;2.13;;
79122;SDS011;68526;44.600;26.032;2023-03-12T00:54:28;3.20;;;2.40;;
79122;SDS011;68526;44.600;26.032;2023-03-12T00:55:31;4.03;;;2.33;;
79122;SDS011;68526;44.600;26.032;2023-03-12T00:56:32;5.80;;;2.92;;
79122;SDS011;68526;44.600;26.032;2023-03-12T00:57:34;3.70;;;2.47;;
79122;SDS011;68526;44.600;26.032;2023-03-12T00:58:35;2.92;;;2.20;;
79122;SDS011;68526;44.600;26.032;2023-03-12T00:59:37;4.38;;;2.35;;
79122;SDS011;68526;44.600;26.032;2023-03-12T01:00:39;4.95;;;2.47;;
79122;SDS011;68526;44.600;26.032;2023-03-12T01:01:41;3.65;;;2.53;;
79122;SDS011;68526;44.600;26.032;2023-03-12T01:02:43;7.53;;;2.72;;
79122;SDS011;68526;44.600;26.032;2023-03-12T01:03:44;4.18;;;2.60;;
79122;SDS011;68526;44.600;26.032;2023-03-12T01:04:46;4.72;;;2.33;;
79122;SDS011;68526;44.600;26.032;2023-03-12T01:05:46;6.45;;;2.20;;
79122;SDS011;68526;44.600;26.032;2023-03-12T01:06:53;5.07;;;2.70;;
79122;SDS011;68526;44.600;26.032;2023-03-12T01:07:54;3.33;;;2.63;;
79122;SDS011;68526;44.600;26.032;2023-03-12T01:08:56;4.88;;;2.40;;
79122;SDS011;68526;44.600;26.032;2023-03-12T01:09:57;4.07;;;2.60;;
79122;SDS011;68526;44.600;26.032;2023-03-12T01:11:00;5.93;;;2.53;;
79122;SDS011;68526;44.600;26.032;2023-03-12T01:12:01;3.15;;;2.45;;
79122;SDS011;68526;44.600;26.032;2023-03-12T01:13:04;2.63;;;2.22;;
79122;SDS011;68526;44.600;26.032;2023-03-12T01:14:05;4.93;;;2.70;;
79122;SDS011;68526;44.600;26.032;2023-03-12T01:15:08;3.63;;;2.47;;
79122;SDS011;68526;44.600;26.032;2023-03-12T01:16:12;3.75;;;2.30;;
79122;SDS011;68526;44.600;26.032;2023-03-12T01:17:14;5.70;;;2.55;;
79122;SDS011;68526;44.600;26.032;2023-03-12T01:18:15;6.43;;;2.65;;
79122;SDS011;68526;44.600;26.032;2023-03-12T01:19:17;5.22;;;2.30;;
79122;SDS011;68526;44.600;26.032;2023-03-12T01:20:18;4.68;;;2.50;;
79122;SDS011;68526;44.600;26.032;2023-03-12T01:21:19;4.07;;;2.72;;
79122;SDS011;68526;44.600;26.032;2023-03-12T01:22:21;2.92;;;2.33;;
79122;SDS011;68526;44.600;26.032;2023-03-12T01:23:22;4.22;;;2.47;;
79122;SDS011;68526;44.600;26.032;2023-03-12T01:24:24;5.22;;;2.35;;
79122;SDS011;68526;44.600;26.032;2023-03-12T01:25:25;5.60;;;2.60;;
79122;SDS011;68526;44.600;26.032;2023-03-12T01:26:28;3.97;;;2.80;;
79122;SDS011;68526;44.600;26.032;2023-03-12T01:27:29;4.68;;;2.60;;
79122;SDS011;68526;44.600;26.032;2023-03-12T01:28:31;4.13;;;2.83;;
79122;SDS011;68526;44.600;26.032;2023-03-12T01:29:32;9.95;;;2.70;;
79122;SDS011;68526;44.600;26.032;2023-03-12T01:30:33;5.68;;;2.55;;
79122;SDS011;68526;44.600;26.032;2023-03-12T01:31:34;5.95;;;2.47;;
79122;SDS011;68526;44.600;26.032;2023-03-12T01:32:36;6.70;;;2.50;;
79122;SDS011;68526;44.600;26.032;2023-03-12T01:33:37;4.65;;;2.40;;
79122;SDS011;68526;44.600;26.032;2023-03-12T01:34:39;5.40;;;2.90;;
79122;SDS011;68526;44.600;26.032;2023-03-12T01:35:40;5.03;;;2.75;;
79122;SDS011;68526;44.600;26.032;2023-03-12T01:36:42;5.03;;;2.78;;
79122;SDS011;68526;44.600;26.032;2023-03-12T01:37:44;4.82;;;2.42;;
79122;SDS011;68526;44.600;26.032;2023-03-12T01:38:46;6.95;;;2.47;;
79122;SDS011;68526;44.600;26.032;2023-03-12T01:39:49;4.25;;;2.80;;
79122;SDS011;68526;44.600;26.032;2023-03-12T01:40:51;5.93;;;2.63;;
79122;SDS011;68526;44.600;26.032;2023-03-12T01:41:53;4.65;;;2.55;;
79122;SDS011;68526;44.600;26.032;2023-03-12T01:42:56;4.80;;;2.63;;
79122;SDS011;68526;44.600;26.032;2023-03-12T01:43:57;6.45;;;2.72;;
79122;SDS011;68526;44.600;26.032;2023-03-12T01:45:02;7.68;;;2.83;;
79122;SDS011;68526;44.600;26.032;2023-03-12T01:46:06;9.15;;;2.63;;
79122;SDS011;68526;44.600;26.032;2023-03-12T01:47:25;5.13;;;2.40;;
79122;SDS011;68526;44.600;26.032;2023-03-12T01:48:32;4.60;;;2.45;;
79122;SDS011;68526;44.600;26.032;2023-03-12T01:49:37;4.55;;;2.53;;
79122;SDS011;68526;44.600;26.032;2023-03-12T01:50:39;3.72;;;2.60;;
79122;SDS011;68526;44.600;26.032;2023-03-12T01:51:41;4.88;;;3.20;;
79122;SDS011;68526;44.600;26.032;2023-03-12T01:52:46;4.13;;;2.13;;
79122;SDS011;68526;44.600;26.032;2023-03-12T01:53:48;5.50;;;2.83;;
79122;SDS011;68526;44.600;26.032;2023-03-12T01:54:54;5.00;;;2.60;;
79122;SDS011;68526;44.600;26.032;2023-03-12T01:55:59;5.38;;;2.50;;
79122;SDS011;68526;44.600;26.032;2023-03-12T01:57:03;8.27;;;2.92;;
79122;SDS011;68526;44.600;26.032;2023-03-12T01:58:08;5.18;;;2.50;;
79122;SDS011;68526;44.600;26.032;2023-03-12T01:59:11;5.65;;;2.35;;
79122;SDS011;68526;44.600;26.032;2023-03-12T02:00:16;5.70;;;3.08;;
79122;SDS011;68526;44.600;26.032;2023-03-12T02:01:19;7.03;;;3.53;;
79122;SDS011;68526;44.600;26.032;2023-03-12T02:02:23;16.90;;;3.30;;
79122;SDS011;68526;44.600;26.032;2023-03-12T02:03:26;8.82;;;3.05;;
79122;SDS011;68526;44.600;26.032;2023-03-12T02:04:29;3.95;;;2.25;;
79122;SDS011;68526;44.600;26.032;2023-03-12T02:05:32;3.88;;;2.33;;
79122;SDS011;68526;44.600;26.032;2023-03-12T02:06:46;4.97;;;2.72;;
79122;SDS011;68526;44.600;26.032;2023-03-12T02:07:50;3.67;;;2.45;;
79122;SDS011;68526;44.600;26.032;2023-03-12T02:08:51;4.25;;;2.60;;
79122;SDS011;68526;44.600;26.032;2023-03-12T02:09:54;6.95;;;2.65;;
79122;SDS011;68526;44.600;26.032;2023-03-12T02:10:56;5.15;;;2.90;;
79122;SDS011;68526;44.600;26.032;2023-03-12T02:11:58;5.07;;;2.30;;
79122;SDS011;68526;44.600;26.032;2023-03-12T02:13:00;6.50;;;2.92;;
79122;SDS011;68526;44.600;26.032;2023-03-12T02:14:02;5.63;;;2.80;;
79122;SDS011;68526;44.600;26.032;2023-03-12T02:15:03;5.22;;;2.63;;
79122;SDS011;68526;44.600;26.032;2023-03-12T02:16:06;7.65;;;2.60;;
79122;SDS011;68526;44.600;26.032;2023-03-12T02:17:09;3.55;;;3.25;;
79122;SDS011;68526;44.600;26.032;2023-03-12T02:18:12;5.75;;;3.00;;
79122;SDS011;68526;44.600;26.032;2023-03-12T02:19:21;8.52;;;2.85;;
79122;SDS011;68526;44.600;26.032;2023-03-12T02:20:31;6.38;;;2.65;;
79122;SDS011;68526;44.600;26.032;2023-03-12T02:21:36;4.70;;;2.17;;
79122;SDS011;68526;44.600;26.032;2023-03-12T02:22:40;6.45;;;2.78;;
79122;SDS011;68526;44.600;26.032;2023-03-12T02:23:45;7.30;;;2.83;;
79122;SDS011;68526;44.600;26.032;2023-03-12T02:24:52;5.30;;;2.70;;
79122;SDS011;68526;44.600;26.032;2023-03-12T02:26:04;4.22;;;2.33;;
79122;SDS011;68526;44.600;26.032;2023-03-12T02:27:06;7.97;;;3.15;;
79122;SDS011;68526;44.600;26.032;2023-03-12T02:28:11;5.15;;;2.90;;
79122;SDS011;68526;44.600;26.032;2023-03-12T02:29:14;6.32;;;2.65;;
79122;SDS011;68526;44.600;26.032;2023-03-12T02:30:17;8.27;;;3.03;;
79122;SDS011;68526;44.600;26.032;2023-03-12T02:31:19;3.95;;;2.63;;
79122;SDS011;68526;44.600;26.032;2023-03-12T02:32:25;4.97;;;2.83;;
79122;SDS011;68526;44.600;26.032;2023-03-12T02:33:31;3.25;;;2.25;;
79122;SDS011;68526;44.600;26.032;2023-03-12T02:34:32;5.72;;;2.65;;
79122;SDS011;68526;44.600;26.032;2023-03-12T02:35:35;3.88;;;2.40;;
79122;SDS011;68526;44.600;26.032;2023-03-12T02:36:36;4.32;;;2.35;;
79122;SDS011;68526;44.600;26.032;2023-03-12T02:37:46;3.55;;;2.72;;
79122;SDS011;68526;44.600;26.032;2023-03-12T02:38:48;4.75;;;2.45;;
79122;SDS011;68526;44.600;26.032;2023-03-12T02:39:52;4.97;;;2.80;;
79122;SDS011;68526;44.600;26.032;2023-03-12T02:40:58;3.83;;;2.78;;
79122;SDS011;68526;44.600;26.032;2023-03-12T02:42:04;4.35;;;2.55;;
79122;SDS011;68526;44.600;26.032;2023-03-12T02:43:06;4.38;;;2.60;;
79122;SDS011;68526;44.600;26.032;2023-03-12T02:44:09;4.15;;;2.83;;
79122;SDS011;68526;44.600;26.032;2023-03-12T02:45:13;3.95;;;2.78;;
79122;SDS011;68526;44.600;26.032;2023-03-12T02:46:14;4.82;;;2.65;;
79122;SDS011;68526;44.600;26.032;2023-03-12T02:47:16;6.25;;;2.92;;
79122;SDS011;68526;44.600;26.032;2023-03-12T02:48:17;4.05;;;2.88;;
79122;SDS011;68526;44.600;26.032;2023-03-12T02:49:19;3.70;;;2.72;;
79122;SDS011;68526;44.600;26.032;2023-03-12T02:50:22;4.65;;;2.67;;
79122;SDS011;68526;44.600;26.032;2023-03-12T02:51:24;4.28;;;2.78;;
79122;SDS011;68526;44.600;26.032;2023-03-12T02:52:24;6.65;;;2.65;;
79122;SDS011;68526;44.600;26.032;2023-03-12T02:53:26;8.18;;;2.70;;
79122;SDS011;68526;44.600;26.032;2023-03-12T02:54:28;6.88;;;2.70;;
79122;SDS011;68526;44.600;26.032;2023-03-12T02:55:30;4.93;;;3.00;;
79122;SDS011;68526;44.600;26.032;2023-03-12T02:56:31;6.03;;;3.60;;
79122;SDS011;68526;44.600;26.032;2023-03-12T02:57:34;8.05;;;2.88;;
79122;SDS011;68526;44.600;26.032;2023-03-12T02:58:36;3.47;;;2.70;;
79122;SDS011;68526;44.600;26.032;2023-03-12T02:59:38;5.38;;;2.88;;
79122;SDS011;68526;44.600;26.032;2023-03-12T03:00:39;7.38;;;2.72;;
79122;SDS011;68526;44.600;26.032;2023-03-12T03:01:41;6.10;;;3.00;;
79122;SDS011;68526;44.600;26.032;2023-03-12T03:02:42;5.05;;;2.90;;
79122;SDS011;68526;44.600;26.032;2023-03-12T03:03:44;6.38;;;3.08;;
79122;SDS011;68526;44.600;26.032;2023-03-12T03:04:45;6.82;;;2.72;;
79122;SDS011;68526;44.600;26.032;2023-03-12T03:05:47;5.55;;;3.22;;
79122;SDS011;68526;44.600;26.032;2023-03-12T03:06:48;4.90;;;3.10;;
79122;SDS011;68526;44.600;26.032;2023-03-12T03:07:50;5.60;;;3.05;;
79122;SDS011;68526;44.600;26.032;2023-03-12T03:08:51;4.45;;;2.90;;
79122;SDS011;68526;44.600;26.032;2023-03-12T03:09:53;9.57;;;3.10;;
79122;SDS011;68526;44.600;26.032;2023-03-12T03:10:54;8.25;;;3.05;;
79122;SDS011;68526;44.600;26.032;2023-03-12T03:11:56;12.52;;;4.22;;
79122;SDS011;68526;44.600;26.032;2023-03-12T03:12:58;4.50;;;3.00;;
79122;SDS011;68526;44.600;26.032;2023-03-12T03:14:01;6.25;;;3.20;;
79122;SDS011;68526;44.600;26.032;2023-03-12T03:15:03;4.05;;;2.83;;
79122;SDS011;68526;44.600;26.032;2023-03-12T03:16:06;6.25;;;3.22;;
79122;SDS011;68526;44.600;26.032;2023-03-12T03:17:07;5.55;;;2.85;;
79122;SDS011;68526;44.600;26.032;2023-03-12T03:18:09;5.82;;;2.97;;
79122;SDS011;68526;44.600;26.032;2023-03-12T03:19:10;5.65;;;3.28;;
79122;SDS011;68526;44.600;26.032;2023-03-12T03:20:12;5.25;;;3.10;;
79122;SDS011;68526;44.600;26.032;2023-03-12T03:21:13;4.43;;;2.85;;
79122;SDS011;68526;44.600;26.032;2023-03-12T03:22:16;7.32;;;3.05;;
79122;SDS011;68526;44.600;26.032;2023-03-12T03:23:17;8.25;;;3.08;;
79122;SDS011;68526;44.600;26.032;2023-03-12T03:24:19;6.03;;;3.05;;
79122;SDS011;68526;44.600;26.032;2023-03-12T03:25:20;6.90;;;2.78;;
79122;SDS011;68526;44.600;26.032;2023-03-12T03:26:23;5.07;;;3.33;;
79122;SDS011;68526;44.600;26.032;2023-03-12T03:27:25;6.30;;;3.08;;
79122;SDS011;68526;44.600;26.032;2023-03-12T03:28:28;5.55;;;2.63;;
79122;SDS011;68526;44.600;26.032;2023-03-12T03:29:30;4.45;;;2.97;;
79122;SDS011;68526;44.600;26.032;2023-03-12T03:30:31;4.93;;;2.92;;
79122;SDS011;68526;44.600;26.032;2023-03-12T03:31:32;6.75;;;3.40;;
79122;SDS011;68526;44.600;26.032;2023-03-12T03:32:34;6.43;;;2.97;;
79122;SDS011;68526;44.600;26.032;2023-03-12T03:33:36;4.50;;;2.75;;
79122;SDS011;68526;44.600;26.032;2023-03-12T03:34:38;7.43;;;3.42;;
79122;SDS011;68526;44.600;26.032;2023-03-12T03:35:39;3.97;;;2.83;;
79122;SDS011;68526;44.600;26.032;2023-03-12T03:36:41;4.80;;;2.90;;
79122;SDS011;68526;44.600;26.032;2023-03-12T03:37:42;4.05;;;2.97;;
79122;SDS011;68526;44.600;26.032;2023-03-12T03:38:44;4.03;;;2.75;;
79122;SDS011;68526;44.600;26.032;2023-03-12T03:39:48;6.43;;;2.83;;
79122;SDS011;68526;44.600;26.032;2023-03-12T03:40:50;6.00;;;2.75;;
79122;SDS011;68526;44.600;26.032;2023-03-12T03:41:51;6.18;;;3.17;;
79122;SDS011;68526;44.600;26.032;2023-03-12T03:42:53;4.35;;;2.85;;
79122;SDS011;68526;44.600;26.032;2023-03-12T03:43:56;5.32;;;2.72;;
79122;SDS011;68526;44.600;26.032;2023-03-12T03:44:58;3.50;;;2.70;;
79122;SDS011;68526;44.600;26.032;2023-03-12T03:46:00;5.68;;;3.55;;
79122;SDS011;68526;44.600;26.032;2023-03-12T03:47:02;8.20;;;3.13;;
79122;SDS011;68526;44.600;26.032;2023-03-12T03:48:04;6.53;;;3.00;;
79122;SDS011;68526;44.600;26.032;2023-03-12T03:49:06;4.80;;;2.72;;
79122;SDS011;68526;44.600;26.032;2023-03-12T03:50:07;4.80;;;2.78;;
79122;SDS011;68526;44.600;26.032;2023-03-12T03:51:10;5.95;;;3.03;;
79122;SDS011;68526;44.600;26.032;2023-03-12T03:52:11;5.03;;;2.80;;
79122;SDS011;68526;44.600;26.032;2023-03-12T03:53:13;6.28;;;2.80;;
79122;SDS011;68526;44.600;26.032;2023-03-12T03:54:13;6.10;;;3.10;;
79122;SDS011;68526;44.600;26.032;2023-03-12T03:55:15;4.05;;;2.78;;
79122;SDS011;68526;44.600;26.032;2023-03-12T03:56:16;5.45;;;3.05;;
79122;SDS011;68526;44.600;26.032;2023-03-12T03:57:18;6.72;;;3.65;;
79122;SDS011;68526;44.600;26.032;2023-03-12T03:58:19;6.38;;;3.03;;
79122;SDS011;68526;44.600;26.032;2023-03-12T03:59:22;6.07;;;3.15;;
79122;SDS011;68526;44.600;26.032;2023-03-12T04:00:23;4.95;;;2.80;;
79122;SDS011;68526;44.600;26.032;2023-03-12T04:01:25;5.40;;;2.97;;
79122;SDS011;68526;44.600;26.032;2023-03-12T04:02:26;4.90;;;2.97;;
79122;SDS011;68526;44.600;26.032;2023-03-12T04:03:28;6.25;;;2.72;;
79122;SDS011;68526;44.600;26.032;2023-03-12T04:04:29;5.68;;;3.05;;
79122;SDS011;68526;44.600;26.032;2023-03-12T04:05:31;4.97;;;3.03;;
79122;SDS011;68526;44.600;26.032;2023-03-12T04:06:32;5.20;;;3.45;;
79122;SDS011;68526;44.600;26.032;2023-03-12T04:07:34;5.65;;;3.30;;
79122;SDS011;68526;44.600;26.032;2023-03-12T04:08:35;9.30;;;2.72;;
79122;SDS011;68526;44.600;26.032;2023-03-12T04:09:37;4.90;;;2.55;;
79122;SDS011;68526;44.600;26.032;2023-03-12T04:10:38;6.40;;;3.05;;
79122;SDS011;68526;44.600;26.032;2023-03-12T04:11:40;5.82;;;3.47;;
79122;SDS011;68526;44.600;26.032;2023-03-12T04:12:41;7.32;;;3.15;;
79122;SDS011;68526;44.600;26.032;2023-03-12T04:13:43;4.63;;;3.20;;
79122;SDS011;68526;44.600;26.032;2023-03-12T04:14:47;5.75;;;3.15;;
79122;SDS011;68526;44.600;26.032;2023-03-12T04:15:54;5.00;;;3.63;;
79122;SDS011;68526;44.600;26.032;2023-03-12T04:17:03;5.05;;;2.67;;
79122;SDS011;68526;44.600;26.032;2023-03-12T04:18:04;5.15;;;2.95;;
79122;SDS011;68526;44.600;26.032;2023-03-12T04:19:05;5.93;;;3.92;;
79122;SDS011;68526;44.600;26.032;2023-03-12T04:20:07;6.18;;;3.25;;
79122;SDS011;68526;44.600;26.032;2023-03-12T04:21:10;6.82;;;4.20;;
79122;SDS011;68526;44.600;26.032;2023-03-12T04:22:13;5.03;;;3.65;;
79122;SDS011;68526;44.600;26.032;2023-03-12T04:23:15;5.78;;;3.35;;
79122;SDS011;68526;44.600;26.032;2023-03-12T04:24:16;8.27;;;3.25;;
79122;SDS011;68526;44.600;26.032;2023-03-12T04:25:19;9.05;;;3.40;;
79122;SDS011;68526;44.600;26.032;2023-03-12T04:26:20;4.97;;;3.08;;
79122;SDS011;68526;44.600;26.032;2023-03-12T04:27:22;5.60;;;3.50;;
79122;SDS011;68526;44.600;26.032;2023-03-12T04:28:23;8.95;;;3.90;;
79122;SDS011;68526;44.600;26.032;2023-03-12T04:29:24;6.05;;;3.70;;
79122;SDS011;68526;44.600;26.032;2023-03-12T04:30:28;9.13;;;4.00;;
79122;SDS011;68526;44.600;26.032;2023-03-12T04:31:28;8.07;;;3.70;;
79122;SDS011;68526;44.600;26.032;2023-03-12T04:32:30;7.07;;;3.50;;
79122;SDS011;68526;44.600;26.032;2023-03-12T04:33:32;11.02;;;3.88;;
79122;SDS011;68526;44.600;26.032;2023-03-12T04:34:36;6.43;;;3.55;;
79122;SDS011;68526;44.600;26.032;2023-03-12T04:35:37;7.32;;;3.53;;
79122;SDS011;68526;44.600;26.032;2023-03-12T04:36:39;6.15;;;4.00;;
79122;SDS011;68526;44.600;26.032;2023-03-12T04:37:40;7.53;;;3.35;;
79122;SDS011;68526;44.600;26.032;2023-03-12T04:38:41;9.95;;;4.03;;
79122;SDS011;68526;44.600;26.032;2023-03-12T04:39:42;8.45;;;3.53;;
79122;SDS011;68526;44.600;26.032;2023-03-12T04:40:45;7.45;;;3.83;;
79122;SDS011;68526;44.600;26.032;2023-03-12T04:41:46;7.35;;;3.67;;
79122;SDS011;68526;44.600;26.032;2023-03-12T04:42:47;7.90;;;3.22;;
79122;SDS011;68526;44.600;26.032;2023-03-12T04:43:48;8.63;;;3.22;;
79122;SDS011;68526;44.600;26.032;2023-03-12T04:44:50;8.65;;;3.47;;
79122;SDS011;68526;44.600;26.032;2023-03-12T04:45:53;6.95;;;3.35;;
79122;SDS011;68526;44.600;26.032;2023-03-12T04:46:55;5.95;;;3.22;;
79122;SDS011;68526;44.600;26.032;2023-03-12T04:47:57;9.18;;;3.47;;
79122;SDS011;68526;44.600;26.032;2023-03-12T04:48:58;8.40;;;3.45;;
79122;SDS011;68526;44.600;26.032;2023-03-12T04:50:01;5.00;;;3.53;;
79122;SDS011;68526;44.600;26.032;2023-03-12T04:51:03;6.30;;;3.92;;
79122;SDS011;68526;44.600;26.032;2023-03-12T04:52:06;6.40;;;3.20;;
79122;SDS011;68526;44.600;26.032;2023-03-12T04:53:07;7.18;;;3.15;;
79122;SDS011;68526;44.600;26.032;2023-03-12T04:54:08;5.97;;;3.50;;
79122;SDS011;68526;44.600;26.032;2023-03-12T04:55:09;9.35;;;3.50;;
79122;SDS011;68526;44.600;26.032;2023-03-12T04:56:11;6.22;;;3.60;;
79122;SDS011;68526;44.600;26.032;2023-03-12T04:57:12;6.07;;;4.13;;
79122;SDS011;68526;44.600;26.032;2023-03-12T04:58:15;4.97;;;3.33;;
79122;SDS011;68526;44.600;26.032;2023-03-12T04:59:16;4.95;;;3.17;;
79122;SDS011;68526;44.600;26.032;2023-03-12T05:00:18;5.55;;;3.35;;
79122;SDS011;68526;44.600;26.032;2023-03-12T05:01:22;5.22;;;2.97;;
79122;SDS011;68526;44.600;26.032;2023-03-12T05:02:26;6.72;;;3.17;;
79122;SDS011;68526;44.600;26.032;2023-03-12T05:03:26;8.77;;;3.83;;
79122;SDS011;68526;44.600;26.032;2023-03-12T05:04:29;9.88;;;5.13;;
79122;SDS011;68526;44.600;26.032;2023-03-12T05:05:29;9.90;;;4.82;;
79122;SDS011;68526;44.600;26.032;2023-03-12T05:06:31;7.97;;;3.60;;
79122;SDS011;68526;44.600;26.032;2023-03-12T05:07:33;6.85;;;4.13;;
79122;SDS011;68526;44.600;26.032;2023-03-12T05:08:34;11.35;;;3.00;;
79122;SDS011;68526;44.600;26.032;2023-03-12T05:09:35;4.82;;;2.95;;
79122;SDS011;68526;44.600;26.032;2023-03-12T05:10:37;5.43;;;3.08;;
79122;SDS011;68526;44.600;26.032;2023-03-12T05:11:38;4.85;;;3.13;;
79122;SDS011;68526;44.600;26.032;2023-03-12T05:12:40;7.50;;;2.90;;
79122;SDS011;68526;44.600;26.032;2023-03-12T05:13:41;4.53;;;3.20;;
79122;SDS011;68526;44.600;26.032;2023-03-12T05:14:43;5.93;;;3.65;;
79122;SDS011;68526;44.600;26.032;2023-03-12T05:15:44;6.40;;;3.38;;
79122;SDS011;68526;44.600;26.032;2023-03-12T05:16:51;6.75;;;4.22;;
79122;SDS011;68526;44.600;26.032;2023-03-12T05:17:52;8.98;;;3.67;;
79122;SDS011;68526;44.600;26.032;2023-03-12T05:18:54;6.13;;;3.10;;
79122;SDS011;68526;44.600;26.032;2023-03-12T05:19:56;7.32;;;3.33;;
79122;SDS011;68526;44.600;26.032;2023-03-12T05:20:57;5.80;;;2.97;;
79122;SDS011;68526;44.600;26.032;2023-03-12T05:21:59;7.28;;;3.88;;
79122;SDS011;68526;44.600;26.032;2023-03-12T05:23:01;9.20;;;4.32;;
79122;SDS011;68526;44.600;26.032;2023-03-12T05:24:03;9.85;;;3.70;;
79122;SDS011;68526;44.600;26.032;2023-03-12T05:25:06;11.43;;;3.50;;
79122;SDS011;68526;44.600;26.032;2023-03-12T05:26:13;8.88;;;3.95;;
79122;SDS011;68526;44.600;26.032;2023-03-12T05:27:17;6.50;;;3.90;;
79122;SDS011;68526;44.600;26.032;2023-03-12T05:28:18;8.45;;;3.63;;
79122;SDS011;68526;44.600;26.032;2023-03-12T05:29:20;11.82;;;3.50;;
79122;SDS011;68526;44.600;26.032;2023-03-12T05:30:21;6.63;;;3.10;;
79122;SDS011;68526;44.600;26.032;2023-03-12T05:31:23;7.63;;;3.50;;
79122;SDS011;68526;44.600;26.032;2023-03-12T05:32:26;12.45;;;3.30;;
79122;SDS011;68526;44.600;26.032;2023-03-12T05:33:28;4.93;;;3.25;;
79122;SDS011;68526;44.600;26.032;2023-03-12T05:34:29;6.50;;;3.40;;
79122;SDS011;68526;44.600;26.032;2023-03-12T05:35:31;8.50;;;5.43;;
79122;SDS011;68526;44.600;26.032;2023-03-12T05:36:32;14.98;;;13.98;;
79122;SDS011;68526;44.600;26.032;2023-03-12T05:37:33;15.10;;;14.05;;
79122;SDS011;68526;44.600;26.032;2023-03-12T05:38:34;19.55;;;14.45;;
79122;SDS011;68526;44.600;26.032;2023-03-12T05:39:36;13.32;;;12.27;;
79122;SDS011;68526;44.600;26.032;2023-03-12T05:40:37;12.50;;;11.25;;
79122;SDS011;68526;44.600;26.032;2023-03-12T05:41:39;13.98;;;13.02;;
79122;SDS011;68526;44.600;26.032;2023-03-12T05:42:40;13.38;;;12.23;;
79122;SDS011;68526;44.600;26.032;2023-03-12T05:43:42;13.40;;;12.40;;
79122;SDS011;68526;44.600;26.032;2023-03-12T05:44:42;12.13;;;11.27;;
79122;SDS011;68526;44.600;26.032;2023-03-12T05:45:44;13.57;;;12.30;;
79122;SDS011;68526;44.600;26.032;2023-03-12T05:46:45;12.55;;;11.55;;
79122;SDS011;68526;44.600;26.032;2023-03-12T05:47:48;9.43;;;8.65;;
79122;SDS011;68526;44.600;26.032;2023-03-12T05:48:49;10.43;;;6.35;;
79122;SDS011;68526;44.600;26.032;2023-03-12T05:49:51;5.72;;;3.97;;
79122;SDS011;68526;44.600;26.032;2023-03-12T05:50:52;8.00;;;4.32;;
79122;SDS011;68526;44.600;26.032;2023-03-12T05:51:54;9.48;;;4.32;;
79122;SDS011;68526;44.600;26.032;2023-03-12T05:53:01;8.93;;;4.10;;
79122;SDS011;68526;44.600;26.032;2023-03-12T05:54:03;7.43;;;4.35;;
79122;SDS011;68526;44.600;26.032;2023-03-12T05:55:04;7.63;;;4.03;;
79122;SDS011;68526;44.600;26.032;2023-03-12T05:56:08;6.35;;;3.83;;
79122;SDS011;68526;44.600;26.032;2023-03-12T05:57:11;8.25;;;3.85;;
79122;SDS011;68526;44.600;26.032;2023-03-12T05:58:12;6.93;;;4.30;;
79122;SDS011;68526;44.600;26.032;2023-03-12T05:59:13;13.70;;;4.72;;
79122;SDS011;68526;44.600;26.032;2023-03-12T06:00:16;7.32;;;3.42;;
79122;SDS011;68526;44.600;26.032;2023-03-12T06:01:18;11.50;;;4.50;;
79122;SDS011;68526;44.600;26.032;2023-03-12T06:02:22;8.63;;;4.05;;
79122;SDS011;68526;44.600;26.032;2023-03-12T06:03:24;7.28;;;4.38;;
79122;SDS011;68526;44.600;26.032;2023-03-12T06:04:26;7.63;;;4.13;;
79122;SDS011;68526;44.600;26.032;2023-03-12T06:05:27;9.13;;;4.35;;
79122;SDS011;68526;44.600;26.032;2023-03-12T06:06:28;8.80;;;5.25;;
79122;SDS011;68526;44.600;26.032;2023-03-12T06:07:29;10.52;;;5.50;;
79122;SDS011;68526;44.600;26.032;2023-03-12T06:08:31;7.47;;;4.60;;
79122;SDS011;68526;44.600;26.032;2023-03-12T06:09:32;9.02;;;5.07;;